Neptune Kefalonia — SVBS2 — position and weather

sailwx.info

Track history (hours):
 
Tides and Currents Weather Stations Pressure Air Temp Water Temp Dewpoint Dewpoint Depression Visibility Wind Speed Wind Dir Waves Ship Positions

Neptune Kefalonia

Last reported at 2018-Jun-20 08:47 UTC. Time now 2018-Jun-21 09:57 UTC.
Position N 36°38' E 014°27'.

Length 169 m; draft 8 m.

Type: Cargo ship. MMSI: 241241000.

Date/timePositionNaut miles runAvg speedWind from/ knotsBaromVisibWave heightAir tempDewpointWater temp
2018-Jun-20 08:47N 36°38' E 014°27'516.0
2018-Jun-20 08:29N 36°39' E 014°21'816.4
2018-Jun-20 08:00N 36°40' E 014°12'916.8
2018-Jun-20 07:30N 36°41' E 014°01'816.8
2018-Jun-20 07:00N 36°42' E 013°51'916.7
2018-Jun-20 06:27N 36°43' E 013°39'716.4
2018-Jun-20 06:00N 36°44' E 013°30'816.2
2018-Jun-20 05:30N 36°46' E 013°20'52011.2
2018-Jun-18 07:03N 36°56' E 002°30'118.4
2018-Jun-18 06:59N 36°56' E 002°29'1118.6
2018-Jun-18 06:23N 36°54' E 002°15'718.4
2018-Jun-18 06:01N 36°54' E 002°06'918.6
2018-Jun-18 05:30N 36°53' E 001°55'918.7
2018-Jun-18 05:00N 36°52' E 001°43'1018.5
2018-Jun-18 04:29N 36°51' E 001°31'918.4
2018-Jun-18 04:01N 36°49' E 001°20'1318.4
2018-Jun-18 03:17N 36°46' E 001°04'1018.4
2018-Jun-18 02:45N 36°44' E 000°52'518.3
2018-Jun-18 02:29N 36°44' E 000°46'918.2
2018-Jun-18 02:01N 36°42' E 000°35'1118.1
2018-Jun-18 01:23N 36°41' E 000°21'717.9
2018-Jun-18 01:00N 36°40' E 000°13'1217.7
2018-Jun-18 00:20N 36°38' W 000°02'617.7
2018-Jun-18 00:00N 36°37' W 000°09'917.8
2018-Jun-17 23:30N 36°35' W 000°20'918.1
2018-Jun-17 23:01N 36°34' W 000°31'917.9
2018-Jun-17 22:30N 36°33' W 000°42'4118.3
2018-Jun-17 20:16N 36°27' W 001°32'18117.8
2018-Jun-17 10:05N 35°59' W 005°14'117.7
2018-Jun-17 10:01N 35°59' W 005°15'917.0
2018-Jun-17 09:31N 35°57' W 005°26'5 0.5
2018-Jun-16 23:26N 35°54' W 005°30'3 3.3
2018-Jun-16 22:37N 35°55' W 005°33'313.4
2018-Jun-16 22:23N 35°54' W 005°37'717.5
2018-Jun-16 21:59N 35°53' W 005°45'817.5
2018-Jun-16 21:31N 35°51' W 005°55'150 3.3
2018-Jun-14 23:38N 36°19' W 008°57'215.7
2018-Jun-14 23:30N 36°21' W 008°58'815.3
2018-Jun-14 23:00N 36°28' W 009°02'714.5
2018-Jun-14 22:30N 36°31' W 009°10'1714.8
2018-Jun-14 21:23N 36°41' W 009°27'1115.2
2018-Jun-14 20:41N 36°49' W 009°34'316.0
2018-Jun-14 20:30N 36°52' W 009°35'816.0
2018-Jun-14 20:00N 37°00' W 009°37'915.9
2018-Jun-14 19:28N 37°08' W 009°39'815.8
2018-Jun-14 18:59N 37°16' W 009°41'816.0
2018-Jun-14 18:29N 37°24' W 009°43'815.7
2018-Jun-14 18:00N 37°31' W 009°45'815.6
2018-Jun-14 17:30N 37°39' W 009°48'815.8
2018-Jun-14 16:59N 37°47' W 009°50'715.8
2018-Jun-14 16:30N 37°54' W 009°52'815.7
2018-Jun-14 16:00N 38°02' W 009°54'1015.6
2018-Jun-14 15:24N 38°11' W 009°57'615.5
2018-Jun-14 15:00N 38°17' W 009°59'815.7
2018-Jun-14 14:30N 38°25' W 010°01'815.7
2018-Jun-14 14:00N 38°32' W 010°03'815.8
2018-Jun-14 13:30N 38°40' W 010°06'815.4
2018-Jun-14 13:00N 38°47' W 010°06'815.3
2018-Jun-14 12:30N 38°55' W 010°06'815.4
2018-Jun-14 12:00N 39°03' W 010°05'815.5
2018-Jun-14 11:29N 39°11' W 010°03'715.6
2018-Jun-14 11:00N 39°18' W 010°01'12615.7
2018-Jun-14 03:01N 41°19' W 009°18'715.9
2018-Jun-14 02:37N 41°25' W 009°16'123 3.9
2018-Jun-12 19:05N 39°24' W 009°44'112.5
2018-Jun-12 19:00N 39°23' W 009°45'612.1
2018-Jun-12 18:30N 39°17' W 009°46'612.1
2018-Jun-12 18:00N 39°11' W 009°47'612.4
2018-Jun-12 17:30N 39°05' W 009°49'612.0
2018-Jun-12 17:00N 38°60' W 009°50'714.9
2018-Jun-12 16:30N 38°52' W 009°51'815.6
2018-Jun-12 16:00N 38°44' W 009°51'816.0
2018-Jun-12 15:30N 38°36' W 009°50'816.3
2018-Jun-12 15:00N 38°28' W 009°48'916.3
2018-Jun-12 14:28N 38°20' W 009°46'816.5
2018-Jun-12 13:58N 38°12' W 009°44'1516.6
2018-Jun-12 13:02N 37°57' W 009°39'616.2
2018-Jun-12 12:40N 37°51' W 009°38'316.1
2018-Jun-12 12:30N 37°48' W 009°37'22114.8
2018-Jun-11 21:36N 35°58' W 005°38'216.2
2018-Jun-11 21:29N 35°58' W 005°35'715.1
2018-Jun-11 21:00N 35°60' W 005°27'713.6
2018-Jun-11 20:30N 36°02' W 005°19'715.0
2018-Jun-11 20:00N 36°07' W 005°12'2 0.1
2018-Jun-10 22:21N 36°06' W 005°09'412.1
2018-Jun-10 22:00N 36°02' W 005°11'714.6
2018-Jun-10 21:30N 35°59' W 005°19'714.2
2018-Jun-10 21:01N 35°57' W 005°28'  
Track history (hours):
 
Tides and Currents Weather Stations Pressure Air Temp Water Temp Dewpoint Dewpoint Depression Visibility Wind Speed Wind Dir Waves Ship Positions

Neptune Kefalonia

Last reported at 2018-Jun-20 08:47 UTC. Time now 2018-Jun-21 09:57 UTC.
Position N 36°38' E 014°27'.

Length 169 m; draft 8 m.

Type: Cargo ship. MMSI: 241241000.

Date/timePositionNaut miles runAvg speedWind from/ knotsBaromVisibWave heightAir tempDewpointWater temp
2018-Jun-20 08:47N 36°38' E 014°27'516.0
2018-Jun-20 08:29N 36°39' E 014°21'816.4
2018-Jun-20 08:00N 36°40' E 014°12'916.8
2018-Jun-20 07:30N 36°41' E 014°01'816.8
2018-Jun-20 07:00N 36°42' E 013°51'916.7
2018-Jun-20 06:27N 36°43' E 013°39'716.4
2018-Jun-20 06:00N 36°44' E 013°30'816.2
2018-Jun-20 05:30N 36°46' E 013°20'52011.2
2018-Jun-18 07:03N 36°56' E 002°30'118.4
2018-Jun-18 06:59N 36°56' E 002°29'1118.6
2018-Jun-18 06:23N 36°54' E 002°15'718.4
2018-Jun-18 06:01N 36°54' E 002°06'918.6
2018-Jun-18 05:30N 36°53' E 001°55'918.7
2018-Jun-18 05:00N 36°52' E 001°43'1018.5
2018-Jun-18 04:29N 36°51' E 001°31'918.4
2018-Jun-18 04:01N 36°49' E 001°20'1318.4
2018-Jun-18 03:17N 36°46' E 001°04'1018.4
2018-Jun-18 02:45N 36°44' E 000°52'518.3
2018-Jun-18 02:29N 36°44' E 000°46'918.2
2018-Jun-18 02:01N 36°42' E 000°35'1118.1
2018-Jun-18 01:23N 36°41' E 000°21'717.9
2018-Jun-18 01:00N 36°40' E 000°13'1217.7
2018-Jun-18 00:20N 36°38' W 000°02'617.7
2018-Jun-18 00:00N 36°37' W 000°09'917.8
2018-Jun-17 23:30N 36°35' W 000°20'918.1
2018-Jun-17 23:01N 36°34' W 000°31'917.9
2018-Jun-17 22:30N 36°33' W 000°42'4118.3
2018-Jun-17 20:16N 36°27' W 001°32'18117.8
2018-Jun-17 10:05N 35°59' W 005°14'117.7
2018-Jun-17 10:01N 35°59' W 005°15'917.0
2018-Jun-17 09:31N 35°57' W 005°26'5 0.5
2018-Jun-16 23:26N 35°54' W 005°30'3 3.3
2018-Jun-16 22:37N 35°55' W 005°33'313.4
2018-Jun-16 22:23N 35°54' W 005°37'717.5
2018-Jun-16 21:59N 35°53' W 005°45'817.5
2018-Jun-16 21:31N 35°51' W 005°55'150 3.3
2018-Jun-14 23:38N 36°19' W 008°57'215.7
2018-Jun-14 23:30N 36°21' W 008°58'815.3
2018-Jun-14 23:00N 36°28' W 009°02'714.5
2018-Jun-14 22:30N 36°31' W 009°10'1714.8
2018-Jun-14 21:23N 36°41' W 009°27'1115.2
2018-Jun-14 20:41N 36°49' W 009°34'316.0
2018-Jun-14 20:30N 36°52' W 009°35'816.0
2018-Jun-14 20:00N 37°00' W 009°37'915.9
2018-Jun-14 19:28N 37°08' W 009°39'815.8
2018-Jun-14 18:59N 37°16' W 009°41'816.0
2018-Jun-14 18:29N 37°24' W 009°43'815.7
2018-Jun-14 18:00N 37°31' W 009°45'815.6
2018-Jun-14 17:30N 37°39' W 009°48'815.8
2018-Jun-14 16:59N 37°47' W 009°50'715.8
2018-Jun-14 16:30N 37°54' W 009°52'815.7
2018-Jun-14 16:00N 38°02' W 009°54'1015.6
2018-Jun-14 15:24N 38°11' W 009°57'615.5
2018-Jun-14 15:00N 38°17' W 009°59'815.7
2018-Jun-14 14:30N 38°25' W 010°01'815.7
2018-Jun-14 14:00N 38°32' W 010°03'815.8
2018-Jun-14 13:30N 38°40' W 010°06'815.4
2018-Jun-14 13:00N 38°47' W 010°06'815.3
2018-Jun-14 12:30N 38°55' W 010°06'815.4
2018-Jun-14 12:00N 39°03' W 010°05'815.5
2018-Jun-14 11:29N 39°11' W 010°03'715.6
2018-Jun-14 11:00N 39°18' W 010°01'12615.7
2018-Jun-14 03:01N 41°19' W 009°18'715.9
2018-Jun-14 02:37N 41°25' W 009°16'123 3.9
2018-Jun-12 19:05N 39°24' W 009°44'112.5
2018-Jun-12 19:00N 39°23' W 009°45'612.1
2018-Jun-12 18:30N 39°17' W 009°46'612.1
2018-Jun-12 18:00N 39°11' W 009°47'612.4
2018-Jun-12 17:30N 39°05' W 009°49'612.0
2018-Jun-12 17:00N 38°60' W 009°50'714.9
2018-Jun-12 16:30N 38°52' W 009°51'815.6
2018-Jun-12 16:00N 38°44' W 009°51'816.0
2018-Jun-12 15:30N 38°36' W 009°50'816.3
2018-Jun-12 15:00N 38°28' W 009°48'916.3
2018-Jun-12 14:28N 38°20' W 009°46'816.5
2018-Jun-12 13:58N 38°12' W 009°44'1516.6
2018-Jun-12 13:02N 37°57' W 009°39'616.2
2018-Jun-12 12:40N 37°51' W 009°38'316.1
2018-Jun-12 12:30N 37°48' W 009°37'22114.8
2018-Jun-11 21:36N 35°58' W 005°38'216.2
2018-Jun-11 21:29N 35°58' W 005°35'715.1
2018-Jun-11 21:00N 35°60' W 005°27'713.6
2018-Jun-11 20:30N 36°02' W 005°19'715.0
2018-Jun-11 20:00N 36°07' W 005°12'2 0.1
2018-Jun-10 22:21N 36°06' W 005°09'412.1
2018-Jun-10 22:00N 36°02' W 005°11'714.6
2018-Jun-10 21:30N 35°59' W 005°19'714.2
2018-Jun-10 21:01N 35°57' W 005°28'  

Dump ship's entire track history